Time;durP1;ratioP1;P1;durP2;ratioP2;P2;SDS_P1;SDS_P2;PMS_P1;PMS_P2;Temp;Humidity;BMP_temperature;BMP_pressure;BME280_temperature;BME280_humidity;BME280_pressure;Samples;Min_cycle;Max_cycle;Signal;HPM_P1;HPM_P2
2023/08/14 00:01:52;;;;;;;1.92;1.83;;;;;;;14.87;96.38;101642.97;6283974;22;20069;-77
2023/08/14 00:04:18;;;;;;;2.15;2.03;;;;;;;14.85;96.93;101644.59;6283125;22;20012;-76
2023/08/14 00:06:45;;;;;;;3.95;1.85;;;;;;;14.82;96.88;101640.13;6284082;22;20020;-77
2023/08/14 00:09:11;;;;;;;3.13;1.77;;;;;;;14.77;96.38;101625.41;6283052;22;20384;-77
2023/08/14 00:11:38;;;;;;;6.43;1.80;;;;;;;14.77;96.64;101630.78;6283264;22;20016;-76
2023/08/14 00:14:04;;;;;;;2.15;2.03;;;;;;;14.75;96.17;101627.78;6283798;22;20343;-76
2023/08/14 00:16:31;;;;;;;2.40;2.20;;;;;;;14.74;96.84;101628.22;6282884;22;20055;-76
2023/08/14 00:18:57;;;;;;;2.17;1.98;;;;;;;14.69;97.33;101626.88;6283641;22;20050;-76
2023/08/14 00:21:24;;;;;;;2.17;2.08;;;;;;;14.68;97.46;101622.72;6256023;22;20016;-76
2023/08/14 00:23:51;;;;;;;2.58;1.95;;;;;;;14.65;97.49;101629.72;6283053;22;20016;-76
2023/08/14 00:26:18;;;;;;;1.80;1.70;;;;;;;14.63;98.03;101628.66;6283070;22;20016;-76
2023/08/14 00:28:45;;;;;;;1.95;1.80;;;;;;;14.59;98.56;101628.06;6256619;22;20095;-76
2023/08/14 00:31:12;;;;;;;4.97;1.90;;;;;;;14.55;98.55;101627.47;6282736;22;20012;-76
2023/08/14 00:33:38;;;;;;;2.22;1.83;;;;;;;14.51;98.60;101626.84;6230010;22;20335;-76
2023/08/14 00:36:05;;;;;;;2.15;1.90;;;;;;;14.50;99.01;101622.69;6283669;22;20050;-76
2023/08/14 00:38:32;;;;;;;3.15;1.83;;;;;;;14.48;99.04;101614.34;6229638;22;20453;-76
2023/08/14 00:41:02;;;;;;;5.18;1.95;;;;;;;14.46;98.86;101612.13;6255798;22;20354;-76
2023/08/14 00:43:29;;;;;;;1.83;1.73;;;;;;;14.45;99.14;101607.19;6282769;22;20039;-77
2023/08/14 00:45:56;;;;;;;2.65;1.67;;;;;;;14.43;98.79;101612.25;6283424;22;20024;-76
2023/08/14 00:48:25;;;;;;;3.83;1.60;;;;;;;14.40;98.61;101613.84;6229988;22;20580;-77
2023/08/14 00:50:54;;;;;;;1.92;1.70;;;;;;;14.38;98.25;101618.19;6255778;22;20091;-77
2023/08/14 00:53:25;;;;;;;2.63;1.70;;;;;;;14.33;98.41;101611.50;6281652;22;20142;-76
2023/08/14 00:55:52;;;;;;;1.95;1.80;;;;;;;14.30;98.41;101618.47;6256131;22;20142;-76
2023/08/14 00:58:19;;;;;;;3.00;1.85;;;;;;;14.26;98.80;101612.53;6253427;22;20012;-76
2023/08/14 01:00:46;;;;;;;1.77;1.65;;;;;;;14.25;98.61;101616.38;6281612;22;20075;-76
2023/08/14 01:03:13;;;;;;;3.38;1.77;;;;;;;14.21;98.71;101613.09;6254180;22;20055;-76
2023/08/14 01:05:40;;;;;;;1.92;1.52;;;;;;;14.20;98.62;101611.59;6253093;22;20048;-76
2023/08/14 01:08:06;;;;;;;1.83;1.70;;;;;;;14.22;99.08;101611.16;6280778;22;20012;-76
2023/08/14 01:10:52;;;;;;;1.80;1.70;;;;;;;14.23;98.68;101610.72;6280817;22;20016;-76
2023/08/14 01:13:30;;;;;;;1.85;1.75;;;;;;;14.23;98.61;101600.00;6253675;22;20024;-76
2023/08/14 01:16:00;;;;;;;2.30;1.70;;;;;;;14.19;99.52;101602.09;6254266;22;20055;-76
2023/08/14 01:18:30;;;;;;;4.85;1.95;;;;;;;14.16;99.40;101605.66;6280696;22;20026;-76
2023/08/14 01:21:24;;;;;;;3.05;1.65;;;;;;;14.16;98.95;101611.00;6281693;22;20501;-76
2023/08/14 01:24:19;;;;;;;1.60;1.50;;;;;;;14.15;99.29;101612.19;6263100;22;20070;-76
2023/08/14 01:26:46;;;;;;;4.60;1.98;;;;;;;14.12;99.62;101605.03;6254082;22;20036;-77
2023/08/14 01:29:14;;;;;;;1.73;1.55;;;;;;;14.11;99.75;101603.53;6254070;22;20016;-74
2023/08/14 01:31:40;;;;;;;2.10;1.88;;;;;;;14.09;99.39;101603.25;6253394;22;20058;-75
2023/08/14 01:34:07;;;;;;;2.78;1.58;;;;;;;14.04;99.65;101603.81;6254102;22;20017;-74
2023/08/14 01:36:57;;;;;;;1.67;1.58;;;;;;;14.00;99.26;101597.84;6252492;22;20025;-75
2023/08/14 01:39:31;;;;;;;1.67;1.45;;;;;;;14.02;99.30;101598.16;6253320;22;20020;-74
2023/08/14 01:42:09;;;;;;;2.17;1.58;;;;;;;14.01;99.29;101596.69;6228934;22;20024;-75
2023/08/14 01:44:40;;;;;;;3.38;1.80;;;;;;;14.02;99.39;101595.47;6253118;22;20016;-74
2023/08/14 01:47:12;;;;;;;4.20;1.48;;;;;;;14.00;99.25;101590.56;6254096;22;20496;-74
2023/08/14 01:49:40;;;;;;;3.03;1.50;;;;;;;13.98;99.54;101582.25;6253352;22;20024;-75
2023/08/14 01:52:07;;;;;;;1.77;1.65;;;;;;;13.97;99.97;101583.44;6253316;22;20046;-75
2023/08/14 01:54:33;;;;;;;1.77;1.67;;;;;;;13.94;99.96;101578.25;6252738;22;20512;-75
2023/08/14 01:57:01;;;;;;;1.75;1.63;;;;;;;13.91;99.98;101576.44;6280995;22;20028;-74
2023/08/14 01:59:40;;;;;;;1.92;1.70;;;;;;;13.89;99.84;101573.47;6252899;22;20059;-75
2023/08/14 02:02:07;;;;;;;2.15;1.70;;;;;;;13.86;99.46;101560.97;6254079;22;20020;-74
2023/08/14 02:04:33;;;;;;;1.83;1.73;;;;;;;13.84;99.78;101561.41;6280549;22;20008;-74
2023/08/14 02:07:00;;;;;;;4.25;1.63;;;;;;;13.83;99.28;101561.84;6253076;22;20028;-74
2023/08/14 02:09:27;;;;;;;2.03;1.83;;;;;;;13.80;99.91;101555.44;6253280;22;20016;-74
2023/08/14 02:11:53;;;;;;;2.65;1.70;;;;;;;13.79;99.45;101545.19;6281331;22;20119;-75
2023/08/14 02:14:20;;;;;;;2.40;1.70;;;;;;;13.77;100.00;101552.91;6252892;22;20426;-75
2023/08/14 02:16:47;;;;;;;1.98;1.65;;;;;;;13.73;99.80;101544.25;6281093;22;20203;-74
2023/08/14 02:19:14;;;;;;;3.05;1.58;;;;;;;13.69;99.71;101550.50;6253757;22;20020;-74
2023/08/14 02:21:40;;;;;;;3.75;1.75;;;;;;;13.62;99.53;101545.41;6252541;22;20028;-74
2023/08/14 02:24:07;;;;;;;4.70;1.90;;;;;;;13.58;99.96;101546.75;6281085;22;20019;-74
2023/08/14 02:26:34;;;;;;;1.85;1.65;;;;;;;13.54;99.72;101538.13;6280083;22;20024;-74
2023/08/14 02:29:01;;;;;;;1.90;1.80;;;;;;;13.52;99.74;101541.22;6253602;22;20111;-74
2023/08/14 02:31:27;;;;;;;3.95;1.80;;;;;;;13.49;99.75;101536.75;6252967;22;20409;-74
2023/08/14 02:34:01;;;;;;;3.70;1.70;;;;;;;13.44;99.63;101536.59;6280118;22;20501;-75
2023/08/14 02:36:28;;;;;;;1.92;1.83;;;;;;;13.40;99.52;101536.72;6253338;22;20027;-75
2023/08/14 02:38:56;;;;;;;1.90;1.63;;;;;;;13.41;99.57;101534.78;6280870;22;20035;-74
2023/08/14 02:41:23;;;;;;;4.35;2.05;;;;;;;13.32;99.49;101527.47;6280262;22;20023;-74
2023/08/14 02:43:49;;;;;;;1.90;1.80;;;;;;;13.34;99.39;101533.13;6281010;22;20016;-75
2023/08/14 02:46:16;;;;;;;1.50;1.42;;;;;;;13.31;99.55;101525.97;6280985;22;20512;-74
2023/08/14 02:48:45;;;;;;;1.67;1.52;;;;;;;13.30;99.87;101535.91;6252919;22;20355;-75
2023/08/14 02:51:11;;;;;;;1.58;1.48;;;;;;;13.27;99.75;101528.78;6228070;22;20106;-74
2023/08/14 02:53:38;;;;;;;2.97;1.65;;;;;;;13.25;99.15;101525.03;6280108;22;20649;-74
2023/08/14 02:56:04;;;;;;;2.42;1.95;;;;;;;13.24;99.32;101532.31;6280980;22;20016;-74
2023/08/14 02:58:31;;;;;;;1.65;1.55;;;;;;;13.22;99.19;101537.34;6280244;22;20134;-74
2023/08/14 03:00:58;;;;;;;1.85;1.60;;;;;;;13.22;99.62;101539.28;6253765;22;20414;-74
2023/08/14 03:03:24;;;;;;;1.63;1.40;;;;;;;13.20;99.61;101549.66;6279697;22;20019;-74
2023/08/14 03:05:51;;;;;;;1.45;1.45;;;;;;;13.18;99.70;101536.03;6253279;22;20035;-74
2023/08/14 03:08:18;;;;;;;2.70;1.52;;;;;;;13.16;99.56;101544.47;6227930;22;20141;-74
2023/08/14 03:10:44;;;;;;;2.78;1.35;;;;;;;13.13;99.74;101545.31;6253293;22;20017;-74
2023/08/14 03:13:11;;;;;;;3.28;1.58;;;;;;;13.07;100.00;101546.31;6253357;22;20020;-75
2023/08/14 03:15:38;;;;;;;3.15;1.73;;;;;;;13.02;100.00;101543.03;6227342;22;20024;-74
2023/08/14 03:18:04;;;;;;;3.97;1.95;;;;;;;13.00;100.00;101534.69;6253034;22;20020;-75
2023/08/14 03:20:31;;;;;;;3.08;1.50;;;;;;;13.00;100.00;101534.69;6252253;22;20079;-74
2023/08/14 03:22:58;;;;;;;1.50;1.40;;;;;;;12.99;100.00;101533.22;6253306;22;20083;-74
2023/08/14 03:25:24;;;;;;;2.08;1.65;;;;;;;12.96;100.00;101536.75;6252592;22;20164;-74
2023/08/14 03:27:51;;;;;;;3.35;1.83;;;;;;;12.96;100.00;101549.38;6253062;22;20016;-74
2023/08/14 03:30:18;;;;;;;3.10;1.67;;;;;;;12.94;99.69;101541.78;6252994;22;20054;-75
2023/08/14 03:32:45;;;;;;;1.88;1.55;;;;;;;12.93;100.00;101537.63;6252657;22;20131;-74
2023/08/14 03:35:12;;;;;;;1.92;1.50;;;;;;;12.92;100.00;101540.72;6280647;22;20369;-74
2023/08/14 03:37:39;;;;;;;2.00;1.45;;;;;;;12.91;100.00;101539.97;6252789;22;20017;-76
2023/08/14 03:40:07;;;;;;;2.28;1.60;;;;;;;12.91;100.00;101542.66;6253354;22;20040;-76
2023/08/14 03:42:34;;;;;;;5.07;1.60;;;;;;;12.90;100.00;101545.75;6279854;22;20044;-76
2023/08/14 03:45:02;;;;;;;1.73;1.63;;;;;;;12.89;100.00;101545.00;6253084;22;20078;-77
2023/08/14 03:47:29;;;;;;;1.85;1.75;;;;;;;12.87;100.00;101534.00;6251771;22;20114;-77
2023/08/14 03:49:56;;;;;;;2.58;2.17;;;;;;;12.86;100.00;101540.53;6253076;22;20020;-75
2023/08/14 03:52:22;;;;;;;4.43;2.10;;;;;;;12.87;100.00;101544.69;6279984;22;20016;-77
2023/08/14 03:54:49;;;;;;;2.20;2.08;;;;;;;12.89;100.00;101546.94;6247779;22;20025;-76
2023/08/14 03:57:16;;;;;;;2.10;2.00;;;;;;;12.90;100.00;101549.19;6222551;22;20035;-76
2023/08/14 03:59:43;;;;;;;2.95;2.20;;;;;;;12.89;100.00;101549.63;6222824;22;20016;-76
2023/08/14 04:02:10;;;;;;;4.30;2.42;;;;;;;12.89;100.00;101544.28;6249107;22;20023;-76
2023/08/14 04:04:36;;;;;;;2.60;2.35;;;;;;;12.89;100.00;101537.00;6248515;22;20469;-74
2023/08/14 04:07:03;;;;;;;2.58;1.80;;;;;;;12.89;100.00;101541.59;6247771;22;20103;-74
2023/08/14 04:09:30;;;;;;;3.03;2.20;;;;;;;12.86;100.00;101548.56;6246993;22;20447;-75
2023/08/14 04:11:56;;;;;;;5.28;2.05;;;;;;;12.81;100.00;101546.44;6247864;22;20012;-75
2023/08/14 04:14:23;;;;;;;4.47;1.77;;;;;;;12.77;100.00;101545.09;6248727;22;20017;-74
2023/08/14 04:16:50;;;;;;;1.80;1.70;;;;;;;12.78;100.00;101536.66;6246950;22;20016;-75
2023/08/14 04:19:18;;;;;;;2.72;2.08;;;;;;;12.79;100.00;101543.47;6247470;22;20012;-74
2023/08/14 04:21:46;;;;;;;2.10;2.00;;;;;;;12.79;100.00;101535.47;6246774;22;20402;-74
2023/08/14 04:24:13;;;;;;;3.35;1.83;;;;;;;12.79;100.00;101532.78;6247170;22;20043;-74
2023/08/14 04:26:40;;;;;;;1.70;1.60;;;;;;;12.80;100.00;101541.53;6248403;22;20016;-75
2023/08/14 04:29:08;;;;;;;1.88;1.65;;;;;;;12.78;100.00;101533.97;6247458;22;20076;-75
2023/08/14 04:31:36;;;;;;;4.07;2.03;;;;;;;12.80;100.00;101531.59;6247932;22;20013;-75
2023/08/14 04:34:03;;;;;;;7.05;2.20;;;;;;;12.80;100.00;101531.59;6248703;22;20339;-75
2023/08/14 04:36:32;;;;;;;3.38;1.85;;;;;;;12.81;100.00;101533.06;6248037;22;20798;-74
2023/08/14 04:39:00;;;;;;;2.20;2.00;;;;;;;12.83;100.00;101532.66;6250622;22;20017;-75
2023/08/14 04:41:27;;;;;;;2.75;1.50;;;;;;;12.86;100.00;101532.53;6248093;22;20016;-75
2023/08/14 04:43:54;;;;;;;2.05;1.90;;;;;;;12.88;100.00;101534.75;6248782;22;20020;-74
2023/08/14 04:46:30;;;;;;;1.95;1.85;;;;;;;12.93;100.00;101518.91;6222170;22;20024;-74
2023/08/14 04:49:07;;;;;;;4.95;1.77;;;;;;;12.96;100.00;101517.28;6225922;22;20027;-76
2023/08/14 04:51:34;;;;;;;4.85;1.70;;;;;;;13.00;100.00;101510.66;6248111;22;20108;-75
2023/08/14 04:54:01;;;;;;;3.22;2.58;;;;;;;13.06;100.00;101512.75;6248886;22;20772;-75
2023/08/14 04:56:30;;;;;;;2.63;1.55;;;;;;;13.12;100.00;101522.44;6248214;22;20047;-75
2023/08/14 04:58:57;;;;;;;2.28;2.08;;;;;;;13.20;100.00;101522.94;6248165;22;20517;-76
2023/08/14 05:01:24;;;;;;;8.63;2.38;;;;;;;13.27;100.00;101520.00;6248215;22;20023;-75
2023/08/14 05:03:54;;;;;;;2.95;2.45;;;;;;;13.36;100.00;101520.06;6249101;22;20021;-76
2023/08/14 05:06:22;;;;;;;2.28;2.08;;;;;;;13.45;100.00;101522.78;6248010;22;20126;-76
2023/08/14 05:08:49;;;;;;;5.60;2.60;;;;;;;13.52;100.00;101527.09;6249380;22;20020;-75
2023/08/14 05:11:15;;;;;;;3.38;3.08;;;;;;;13.57;100.00;101524.59;6250859;22;20087;-75
2023/08/14 05:13:44;;;;;;;3.40;3.08;;;;;;;13.61;100.00;101519.09;6247740;22;20083;-76
2023/08/14 05:16:11;;;;;;;5.80;3.42;;;;;;;13.65;100.00;101511.69;6248814;22;20017;-77
2023/08/14 05:18:38;;;;;;;4.78;4.38;;;;;;;13.69;100.00;101507.69;6248260;22;20362;-78
2023/08/14 05:21:05;;;;;;;5.00;4.50;;;;;;;13.81;100.00;101513.38;6250682;22;20460;-77
2023/08/14 05:23:32;;;;;;;5.00;4.28;;;;;;;13.96;100.00;101514.28;6248335;22;20099;-77
2023/08/14 05:25:58;;;;;;;5.45;4.95;;;;;;;14.08;100.00;101508.06;6250597;22;20019;-76
2023/08/14 05:28:25;;;;;;;10.02;5.57;;;;;;;14.33;100.00;101515.06;6249228;22;20451;-77
2023/08/14 05:30:51;;;;;;;8.57;5.07;;;;;;;14.56;100.00;101513.75;6248817;22;20411;-76
2023/08/14 05:33:18;;;;;;;8.68;4.95;;;;;;;14.61;100.00;101502.44;6249875;22;20020;-77
2023/08/14 05:35:48;;;;;;;3.97;3.67;;;;;;;14.62;100.00;101509.28;6248824;22;20370;-76
2023/08/14 05:38:15;;;;;;;3.65;3.13;;;;;;;14.73;100.00;101514.94;6250793;22;20071;-78
2023/08/14 05:40:41;;;;;;;3.72;3.25;;;;;;;14.88;100.00;101507.72;6249814;22;20019;-78
2023/08/14 05:43:09;;;;;;;4.32;3.20;;;;;;;14.96;100.00;101516.22;6249860;22;20079;-79
2023/08/14 05:45:46;;;;;;;3.38;3.10;;;;;;;14.97;100.00;101512.34;6249809;22;20437;-78
2023/08/14 05:48:14;;;;;;;4.32;3.10;;;;;;;15.02;100.00;101509.06;6249046;22;20494;-78
2023/08/14 05:50:41;;;;;;;3.85;3.35;;;;;;;15.08;100.00;101498.47;6249767;22;20064;-75
2023/08/14 05:53:08;;;;;;;3.75;3.42;;;;;;;15.15;100.00;101509.63;6251139;22;20017;-78
2023/08/14 05:55:38;;;;;;;4.65;3.33;;;;;;;15.07;100.00;101518.44;6280649;22;20787;-77
2023/08/14 05:58:06;;;;;;;4.35;3.53;;;;;;;14.96;100.00;101516.22;6253718;22;20350;-80
2023/08/14 06:00:34;;;;;;;6.68;3.10;;;;;;;14.92;100.00;101519.03;6252755;22;20095;-81
2023/08/14 06:03:01;;;;;;;5.05;3.33;;;;;;;14.93;100.00;101523.22;6281117;22;20023;-80
2023/08/14 06:05:28;;;;;;;4.03;3.65;;;;;;;14.96;100.00;101525.00;6280353;22;20016;-81
2023/08/14 06:07:56;;;;;;;4.57;4.28;;;;;;;14.99;100.00;101518.00;6254240;22;20051;-80
2023/08/14 06:10:23;;;;;;;5.43;4.70;;;;;;;15.01;100.00;101529.00;6280522;22;20023;-78
2023/08/14 06:12:50;;;;;;;7.25;4.80;;;;;;;15.01;100.00;101531.69;6280436;22;20336;-75
2023/08/14 06:15:21;;;;;;;5.03;4.35;;;;;;;15.05;100.00;101534.22;6281101;22;20537;-76
2023/08/14 06:17:48;;;;;;;6.53;4.85;;;;;;;15.13;100.00;101532.72;6281274;22;20067;-76
2023/08/14 06:20:15;;;;;;;9.27;5.18;;;;;;;15.21;100.00;101523.88;6281000;22;20496;-76
2023/08/14 06:22:44;;;;;;;6.97;5.85;;;;;;;15.30;100.00;101534.56;6280256;22;20492;-77
2023/08/14 06:25:12;;;;;;;9.00;6.85;;;;;;;15.41;100.00;101533.34;6254011;22;20012;-76
2023/08/14 06:27:39;;;;;;;9.82;7.70;;;;;;;15.52;100.00;101534.34;6252672;22;20016;-78
2023/08/14 06:30:10;;;;;;;15.25;8.27;;;;;;;15.68;100.00;101542.03;6280777;22;20012;-77
2023/08/14 06:32:38;;;;;;;11.07;8.07;;;;;;;15.94;100.00;101549.69;6280121;22;20439;-80
2023/08/14 06:35:06;;;;;;;14.10;9.23;;;;;;;16.16;100.00;101554.75;6281052;22;20358;-79
2023/08/14 06:37:32;;;;;;;12.38;8.13;;;;;;;16.24;100.00;101550.50;6280274;22;20012;-77
2023/08/14 06:39:59;;;;;;;10.05;8.38;;;;;;;16.31;100.00;101547.47;6281203;22;20016;-79
2023/08/14 06:42:25;;;;;;;10.88;8.45;;;;;;;16.47;100.00;101548.97;6279440;22;20051;-75
2023/08/14 06:44:52;;;;;;;9.45;8.55;;;;;;;16.65;100.00;101541.53;6253566;22;20022;-75
2023/08/14 06:47:19;;;;;;;11.45;8.50;;;;;;;16.82;100.00;101547.19;6279957;22;20078;-75
2023/08/14 06:49:45;;;;;;;11.93;8.48;;;;;;;16.92;100.00;101550.56;6280785;22;20047;-76
2023/08/14 06:52:13;;;;;;;13.00;7.97;;;;;;;16.97;100.00;101542.56;6253379;22;20055;-76
2023/08/14 06:54:40;;;;;;;8.85;7.50;;;;;;;17.13;100.00;101540.63;6279081;22;20016;-76
2023/08/14 06:57:07;;;;;;;10.75;7.70;;;;;;;17.25;99.79;101539.56;6280367;22;20500;-74
2023/08/14 06:59:34;;;;;;;8.00;7.38;;;;;;;17.49;100.00;101542.16;6280115;22;20016;-74
2023/08/14 07:02:01;;;;;;;9.80;7.90;;;;;;;17.77;100.00;101532.50;6280848;22;20016;-74
2023/08/14 07:04:28;;;;;;;12.30;8.57;;;;;;;17.93;98.91;101523.91;6252747;22;20319;-74
2023/08/14 07:06:54;;;;;;;14.60;8.18;;;;;;;18.13;97.83;101533.19;6280409;22;20043;-75
2023/08/14 07:09:21;;;;;;;9.00;8.20;;;;;;;18.24;97.98;101542.16;6279980;22;20016;-75
2023/08/14 07:11:48;;;;;;;10.65;7.88;;;;;;;18.40;97.27;101534.69;6280838;22;20462;-75
2023/08/14 07:14:15;;;;;;;9.85;7.90;;;;;;;18.54;96.44;101528.47;6280791;22;20095;-75
2023/08/14 07:16:41;;;;;;;12.88;8.18;;;;;;;18.59;95.04;101533.94;6280195;22;20066;-75
2023/08/14 07:19:08;;;;;;;9.52;7.32;;;;;;;18.64;93.95;101533.28;6280774;22;20426;-74
2023/08/14 07:21:35;;;;;;;11.07;8.20;;;;;;;18.76;94.73;101544.91;6279990;22;20020;-74
2023/08/14 07:24:02;;;;;;;8.40;7.53;;;;;;;18.83;94.49;101543.72;6252912;22;20020;-74
2023/08/14 07:26:28;;;;;;;8.45;7.57;;;;;;;18.85;93.92;101533.94;6279859;22;20024;-75
2023/08/14 07:28:55;;;;;;;8.77;7.70;;;;;;;18.84;93.26;101545.94;6280599;22;20016;-75
2023/08/14 07:31:22;;;;;;;12.75;7.50;;;;;;;18.90;93.32;101543.28;6280029;22;20104;-75
2023/08/14 07:33:49;;;;;;;10.88;7.85;;;;;;;19.14;93.43;101537.63;6280808;22;20016;-76
2023/08/14 07:36:15;;;;;;;8.70;6.97;;;;;;;19.44;91.44;101541.50;6280484;22;20043;-75
2023/08/14 07:38:42;;;;;;;8.73;7.03;;;;;;;19.80;90.81;101534.59;6279848;22;20109;-75
2023/08/14 07:41:09;;;;;;;13.40;7.32;;;;;;;20.03;89.32;101534.66;6280672;22;20044;-75
2023/08/14 07:43:35;;;;;;;8.25;7.40;;;;;;;20.10;87.60;101529.53;6279546;22;20012;-75
2023/08/14 07:46:02;;;;;;;10.85;7.85;;;;;;;20.04;86.52;101530.75;6280511;22;20017;-75
2023/08/14 07:48:28;;;;;;;11.50;7.60;;;;;;;20.08;88.09;101537.41;6252665;22;20027;-75
2023/08/14 07:50:55;;;;;;;11.73;7.07;;;;;;;20.33;87.15;101545.84;6280533;22;20020;-75
2023/08/14 07:53:22;;;;;;;10.00;7.57;;;;;;;20.43;86.41;101547.09;6278467;22;20095;-75
2023/08/14 07:55:48;;;;;;;9.85;7.25;;;;;;;20.57;85.99;101554.25;6253286;22;20043;-75
2023/08/14 07:58:17;;;;;;;13.15;7.20;;;;;;;20.68;84.12;101548.16;6280297;22;20027;-75
2023/08/14 08:00:45;;;;;;;11.13;6.70;;;;;;;20.93;84.95;101558.72;6280110;22;20035;-75
2023/08/14 08:03:12;;;;;;;7.45;6.70;;;;;;;21.22;83.76;101560.22;6280275;22;20012;-75
2023/08/14 08:05:38;;;;;;;16.60;6.93;;;;;;;21.41;80.94;101555.03;6252138;22;20036;-75
2023/08/14 08:08:05;;;;;;;8.05;6.10;;;;;;;21.60;80.44;101561.38;6253520;22;20048;-74
2023/08/14 08:10:32;;;;;;;8.10;5.78;;;;;;;21.76;79.67;101553.69;6280680;22;20023;-75
2023/08/14 08:12:59;;;;;;;8.93;5.72;;;;;;;21.92;78.15;101550.94;6281583;22;20468;-75
2023/08/14 08:15:25;;;;;;;7.03;6.38;;;;;;;22.10;78.19;101551.63;6280870;22;20016;-75
2023/08/14 08:17:52;;;;;;;8.35;5.78;;;;;;;22.28;76.60;101548.31;6254513;22;20016;-75
2023/08/14 08:20:18;;;;;;;12.52;5.43;;;;;;;22.38;76.42;101533.22;6253817;22;20035;-75
2023/08/14 08:22:45;;;;;;;11.75;5.20;;;;;;;22.52;73.55;101525.97;6280738;22;20035;-76
2023/08/14 08:25:12;;;;;;;5.60;5.07;;;;;;;22.54;73.30;101509.94;6281367;22;20012;-74
2023/08/14 08:27:38;;;;;;;6.70;4.95;;;;;;;22.59;73.55;101511.88;6280565;22;20020;-74
2023/08/14 08:30:05;;;;;;;5.03;4.40;;;;;;;22.82;71.63;101515.88;6281494;22;20024;-74
2023/08/14 08:32:32;;;;;;;6.38;5.20;;;;;;;22.86;71.56;101505.50;6280862;22;20102;-77
2023/08/14 08:34:59;;;;;;;7.38;3.85;;;;;;;23.00;71.25;101511.78;6281360;22;20435;-79
2023/08/14 08:37:25;;;;;;;9.50;4.25;;;;;;;23.14;70.21;101526.97;6280176;22;20047;-77
2023/08/14 08:39:52;;;;;;;6.97;4.07;;;;;;;23.17;69.10;101533.38;6281582;22;20095;-75
2023/08/14 08:42:19;;;;;;;6.45;3.75;;;;;;;23.16;67.95;101524.50;6280799;22;20087;-74
2023/08/14 08:44:49;;;;;;;3.53;3.22;;;;;;;23.29;69.04;101524.59;6281496;22;20453;-74
2023/08/14 08:47:22;;;;;;;5.53;3.40;;;;;;;23.37;68.41;101515.88;6281220;22;20016;-74
2023/08/14 08:49:50;;;;;;;6.70;3.47;;;;;;;23.50;67.22;101511.28;6281686;22;20020;-75
2023/08/14 08:52:17;;;;;;;9.45;3.70;;;;;;;23.51;66.82;101515.47;6280535;22;20450;-75
2023/08/14 08:54:44;;;;;;;8.45;3.40;;;;;;;23.59;66.15;101510.94;6253678;22;20021;-75
2023/08/14 08:57:11;;;;;;;6.60;3.53;;;;;;;23.68;66.06;101503.69;6281212;22;20054;-75
2023/08/14 08:59:39;;;;;;;7.03;3.30;;;;;;;23.90;65.20;101495.25;6280664;22;20728;-75
2023/08/14 09:02:08;;;;;;;4.78;3.30;;;;;;;24.07;64.86;101495.75;6253712;22;20024;-76
2023/08/14 09:04:34;;;;;;;7.53;3.20;;;;;;;24.14;63.57;101502.59;6280771;22;20157;-76
2023/08/14 09:07:01;;;;;;;8.05;3.08;;;;;;;24.20;63.81;101500.53;6280717;22;20095;-76
2023/08/14 09:09:28;;;;;;;5.43;2.90;;;;;;;24.37;62.83;101501.06;6280812;22;20020;-76
2023/08/14 09:11:55;;;;;;;7.80;2.83;;;;;;;24.44;62.50;101505.88;6281442;22;20091;-76
2023/08/14 09:14:22;;;;;;;6.22;2.83;;;;;;;24.54;61.34;101492.63;6280534;22;20023;-76
2023/08/14 09:16:53;;;;;;;10.00;3.17;;;;;;;24.75;61.29;101498.97;6281443;22;20012;-75
2023/08/14 09:19:20;;;;;;;6.95;2.70;;;;;;;24.82;59.54;101487.44;6280201;22;20016;-76
2023/08/14 09:21:47;;;;;;;9.73;2.70;;;;;;;24.86;60.46;101496.03;6280704;22;20016;-76
2023/08/14 09:24:14;;;;;;;6.50;2.50;;;;;;;24.91;59.26;101499.91;6253921;22;20022;-75
2023/08/14 09:26:43;;;;;;;6.40;3.13;;;;;;;25.04;60.22;101508.13;6252893;22;20024;-76
2023/08/14 09:29:14;;;;;;;7.13;3.15;;;;;;;25.15;58.64;101509.94;6281211;22;20020;-76
2023/08/14 09:31:45;;;;;;;10.90;3.10;;;;;;;25.18;58.88;101517.78;6280355;22;20036;-76
2023/08/14 09:34:17;;;;;;;9.07;2.63;;;;;;;25.18;59.09;101517.78;6281333;22;20016;-76
2023/08/14 09:36:44;;;;;;;10.02;3.00;;;;;;;24.94;59.96;101518.66;6280564;22;20021;-76
2023/08/14 09:39:12;;;;;;;8.70;3.08;;;;;;;25.12;60.73;101517.16;6281161;22;20016;-76
2023/08/14 09:41:38;;;;;;;11.43;2.97;;;;;;;25.08;58.37;101522.19;6280581;22;20023;-77
2023/08/14 09:44:05;;;;;;;9.63;3.70;;;;;;;25.25;57.55;101510.97;6280985;22;20087;-77
2023/08/14 09:46:32;;;;;;;5.75;3.40;;;;;;;25.41;58.53;101515.38;6280104;22;20086;-76
2023/08/14 09:49:01;;;;;;;8.02;3.58;;;;;;;25.46;56.22;101511.81;6280247;22;20024;-77
2023/08/14 09:51:27;;;;;;;8.27;3.65;;;;;;;25.45;56.55;101498.69;6279907;22;20013;-76
2023/08/14 09:53:56;;;;;;;6.38;3.42;;;;;;;25.68;58.23;101494.28;6280641;22;20024;-76
2023/08/14 09:56:24;;;;;;;8.75;3.03;;;;;;;26.03;57.45;101495.75;6280348;22;20016;-75
2023/08/14 09:58:53;;;;;;;13.15;4.03;;;;;;;26.04;55.60;101488.31;6280584;22;20012;-78
2023/08/14 10:01:20;;;;;;;9.27;3.60;;;;;;;25.95;55.25;101480.59;6252246;22;20012;-77
2023/08/14 10:03:52;;;;;;;5.38;3.58;;;;;;;25.90;55.63;101482.19;6280407;22;20012;-76
2023/08/14 10:06:23;;;;;;;5.53;4.30;;;;;;;26.04;55.45;101482.84;6280519;22;20472;-77
2023/08/14 10:08:55;;;;;;;5.50;3.72;;;;;;;26.07;55.11;101468.16;6281127;22;20481;-77
2023/08/14 10:11:28;;;;;;;7.55;4.30;;;;;;;26.07;54.66;101476.31;6252742;22;20012;-77
2023/08/14 10:14:00;;;;;;;7.93;3.33;;;;;;;25.82;56.29;101470.44;6281080;22;20353;-75
2023/08/14 10:16:31;;;;;;;7.50;3.53;;;;;;;26.08;56.53;101453.97;6280158;22;20050;-75
2023/08/14 10:19:01;;;;;;;6.25;4.18;;;;;;;26.15;55.40;101455.31;6280296;22;20016;-79
2023/08/14 10:21:32;;;;;;;5.10;3.53;;;;;;;26.40;54.41;101453.72;6280258;22;20446;-76
2023/08/14 10:23:59;;;;;;;5.68;4.00;;;;;;;26.50;54.24;101465.66;6253827;22;20017;-79
2023/08/14 10:26:27;;;;;;;9.75;3.92;;;;;;;26.55;51.99;101448.41;6279947;22;20047;-76
2023/08/14 10:28:56;;;;;;;9.13;3.88;;;;;;;26.39;52.56;101457.03;6280620;22;20036;-78
2023/08/14 10:31:24;;;;;;;8.20;3.80;;;;;;;26.60;53.10;101448.78;6280200;22;20070;-78
2023/08/14 10:33:51;;;;;;;6.88;3.53;;;;;;;26.65;51.34;101450.66;6280325;22;20023;-76
2023/08/14 10:36:19;;;;;;;6.63;3.40;;;;;;;26.70;52.53;101450.50;6253338;22;20016;-77
2023/08/14 10:38:47;;;;;;;11.68;3.80;;;;;;;26.51;53.16;101453.47;6281095;22;20016;-78
2023/08/14 10:41:16;;;;;;;6.30;3.72;;;;;;;26.25;53.82;101454.31;6280899;22;20066;-78
2023/08/14 10:43:57;;;;;;;9.98;3.40;;;;;;;25.91;53.69;101448.91;6280509;22;20012;-77
2023/08/14 10:46:23;;;;;;;7.18;3.75;;;;;;;25.64;54.30;101450.25;6280191;22;20012;-77
2023/08/14 10:48:52;;;;;;;5.43;3.13;;;;;;;26.09;54.33;101449.97;6280133;22;20024;-78
2023/08/14 10:51:21;;;;;;;5.15;2.65;;;;;;;26.38;52.32;101439.91;6280278;22;20012;-76
2023/08/14 10:53:47;;;;;;;4.47;3.10;;;;;;;26.50;51.13;101437.63;6280743;22;20012;-79
2023/08/14 10:56:14;;;;;;;4.38;2.90;;;;;;;26.57;50.85;101429.50;6280807;22;20032;-76
2023/08/14 10:58:47;;;;;;;4.90;2.30;;;;;;;26.68;49.34;101436.66;6252405;22;20020;-76
2023/08/14 11:01:14;;;;;;;4.95;2.30;;;;;;;26.68;49.18;101427.75;6253651;22;20039;-76
2023/08/14 11:03:56;;;;;;;6.13;2.13;;;;;;;26.81;50.37;101433.09;6278964;22;20438;-77
2023/08/14 11:06:27;;;;;;;4.07;2.25;;;;;;;26.81;48.50;101431.09;6279988;22;20016;-77
2023/08/14 11:08:58;;;;;;;5.25;2.28;;;;;;;27.18;47.96;101423.69;6280788;22;20031;-76
2023/08/14 11:11:26;;;;;;;4.47;2.15;;;;;;;26.81;48.38;101427.63;6279955;22;20091;-77
2023/08/14 11:13:53;;;;;;;7.63;2.20;;;;;;;26.94;48.78;101421.31;6253005;22;20012;-76
2023/08/14 11:16:20;;;;;;;4.32;2.25;;;;;;;26.72;47.50;101404.28;6251664;22;20020;-77
2023/08/14 11:18:47;;;;;;;3.63;2.00;;;;;;;26.74;48.55;101415.41;6280265;22;20020;-77
2023/08/14 11:21:14;;;;;;;5.38;2.00;;;;;;;26.72;47.51;101415.22;6280420;22;20008;-77
2023/08/14 11:23:57;;;;;;;3.67;2.00;;;;;;;26.93;47.51;101412.41;6280630;22;20071;-76
2023/08/14 11:26:28;;;;;;;11.85;2.10;;;;;;;27.24;48.83;101418.75;6279210;22;20020;-77